Bright Ocean — HOGQ — position and weather

sailwx.info

Track history (hours):
 
Tides and Currents Weather Stations Pressure Air Temp Water Temp Dewpoint Dewpoint Depression Visibility Wind Speed Wind Dir Waves Ship Positions

Bright Ocean

Last reported at 2014-Sep-21 02:33 UTC. Time now 2014-Sep-21 16:09 UTC.
Position N 32°13' E 119°54'.

Length 178 m; draft 7.6 m.

Type: Cargo ship. MMSI: 373816000.

Date/timePositionNaut miles runAvg speedWind from/ knotsBaromVisibWave heightAir tempDewpointWater temp
2014-Sep-21 02:33N 32°13' E 119°54'1110.9
2014-Sep-21 01:33N 32°02' E 119°57'10 9.9
2014-Sep-21 00:33N 31°57' E 120°07'9 8.6
2014-Sep-20 23:33N 31°57' E 120°17'9 8.7
2014-Sep-20 22:33N 31°59' E 120°27'7 6.7
2014-Sep-20 21:33N 32°01' E 120°34'1110.8
2014-Sep-20 20:33N 32°01' E 120°47'1110.6
2014-Sep-20 19:33N 31°52' E 120°54'10 9.6
2014-Sep-20 18:32N 31°46' E 121°03'1212.2
2014-Sep-20 17:32N 31°39' E 121°14'1211.9
2014-Sep-20 16:32N 31°30' E 121°24'9 9.4
2014-Sep-20 15:33N 31°24' E 121°33'10 9.7
2014-Sep-20 14:32N 31°19' E 121°42'1413.4
2014-Sep-20 13:32N 31°09' E 121°53'2611.5
2014-Sep-20 11:14N 31°02' E 122°23'6 9.4
2014-Sep-20 10:33N 31°00' E 122°30'7 7.3
2014-Sep-20 09:33N 31°02' E 122°38'0 0.2
2014-Sep-20 08:24N 31°02' E 122°38'0 0.3
2014-Sep-20 07:32N 31°02' E 122°38'6 5.7
2014-Sep-20 06:33N 31°01' E 122°45'10 9.6
2014-Sep-20 05:29N 31°01' E 122°56'1511.7
2014-Sep-20 04:12N 30°55' E 123°13'  
Track history (hours):
 
Tides and Currents Weather Stations Pressure Air Temp Water Temp Dewpoint Dewpoint Depression Visibility Wind Speed Wind Dir Waves Ship Positions

Bright Ocean

Last reported at 2014-Sep-21 02:33 UTC. Time now 2014-Sep-21 16:09 UTC.
Position N 32°13' E 119°54'.

Length 178 m; draft 7.6 m.

Type: Cargo ship. MMSI: 373816000.

Date/timePositionNaut miles runAvg speedWind from/ knotsBaromVisibWave heightAir tempDewpointWater temp
2014-Sep-21 02:33N 32°13' E 119°54'1110.9
2014-Sep-21 01:33N 32°02' E 119°57'10 9.9
2014-Sep-21 00:33N 31°57' E 120°07'9 8.6
2014-Sep-20 23:33N 31°57' E 120°17'9 8.7
2014-Sep-20 22:33N 31°59' E 120°27'7 6.7
2014-Sep-20 21:33N 32°01' E 120°34'1110.8
2014-Sep-20 20:33N 32°01' E 120°47'1110.6
2014-Sep-20 19:33N 31°52' E 120°54'10 9.6
2014-Sep-20 18:32N 31°46' E 121°03'1212.2
2014-Sep-20 17:32N 31°39' E 121°14'1211.9
2014-Sep-20 16:32N 31°30' E 121°24'9 9.4
2014-Sep-20 15:33N 31°24' E 121°33'10 9.7
2014-Sep-20 14:32N 31°19' E 121°42'1413.4
2014-Sep-20 13:32N 31°09' E 121°53'2611.5
2014-Sep-20 11:14N 31°02' E 122°23'6 9.4
2014-Sep-20 10:33N 31°00' E 122°30'7 7.3
2014-Sep-20 09:33N 31°02' E 122°38'0 0.2
2014-Sep-20 08:24N 31°02' E 122°38'0 0.3
2014-Sep-20 07:32N 31°02' E 122°38'6 5.7
2014-Sep-20 06:33N 31°01' E 122°45'10 9.6
2014-Sep-20 05:29N 31°01' E 122°56'1511.7
2014-Sep-20 04:12N 30°55' E 123°13'  

Dump ship's entire track history